sensor_id;sensor_type;location;lat;lon;timestamp;P1;durP1;ratioP1;P2;durP2;ratioP2
73776;SDS011;62088;50.240;2.696;2023-05-15T00:01:56;34.78;;;21.27;;
73776;SDS011;62088;50.240;2.696;2023-05-15T00:04:23;49.22;;;39.63;;
73776;SDS011;62088;50.240;2.696;2023-05-15T00:06:50;49.75;;;38.88;;
73776;SDS011;62088;50.240;2.696;2023-05-15T00:09:18;51.63;;;38.67;;
73776;SDS011;62088;50.240;2.696;2023-05-15T00:11:45;54.38;;;40.38;;
73776;SDS011;62088;50.240;2.696;2023-05-15T00:14:12;50.13;;;37.20;;
73776;SDS011;62088;50.240;2.696;2023-05-15T00:16:39;53.47;;;40.40;;
73776;SDS011;62088;50.240;2.696;2023-05-15T00:19:07;49.20;;;38.55;;
73776;SDS011;62088;50.240;2.696;2023-05-15T00:21:34;47.45;;;36.17;;
73776;SDS011;62088;50.240;2.696;2023-05-15T00:24:01;43.40;;;35.70;;
73776;SDS011;62088;50.240;2.696;2023-05-15T00:26:28;47.28;;;36.42;;
73776;SDS011;62088;50.240;2.696;2023-05-15T00:28:56;46.20;;;37.20;;
73776;SDS011;62088;50.240;2.696;2023-05-15T00:31:23;47.08;;;36.40;;
73776;SDS011;62088;50.240;2.696;2023-05-15T00:33:50;44.80;;;36.63;;
73776;SDS011;62088;50.240;2.696;2023-05-15T00:36:17;45.15;;;36.13;;
73776;SDS011;62088;50.240;2.696;2023-05-15T00:38:49;42.42;;;34.47;;
73776;SDS011;62088;50.240;2.696;2023-05-15T00:41:16;44.67;;;37.00;;
73776;SDS011;62088;50.240;2.696;2023-05-15T00:43:44;47.60;;;37.47;;
73776;SDS011;62088;50.240;2.696;2023-05-15T00:46:12;43.63;;;35.30;;
73776;SDS011;62088;50.240;2.696;2023-05-15T00:48:41;48.30;;;37.88;;
73776;SDS011;62088;50.240;2.696;2023-05-15T00:51:09;51.25;;;37.58;;
73776;SDS011;62088;50.240;2.696;2023-05-15T00:53:37;45.95;;;36.15;;
73776;SDS011;62088;50.240;2.696;2023-05-15T00:56:05;48.53;;;37.30;;
73776;SDS011;62088;50.240;2.696;2023-05-15T00:58:34;45.47;;;35.55;;
73776;SDS011;62088;50.240;2.696;2023-05-15T01:01:03;48.38;;;35.72;;
73776;SDS011;62088;50.240;2.696;2023-05-15T01:03:34;43.55;;;33.55;;
73776;SDS011;62088;50.240;2.696;2023-05-15T01:06:02;48.85;;;37.05;;
73776;SDS011;62088;50.240;2.696;2023-05-15T01:08:33;47.63;;;36.08;;
73776;SDS011;62088;50.240;2.696;2023-05-15T01:11:15;42.08;;;32.85;;
73776;SDS011;62088;50.240;2.696;2023-05-15T01:13:44;43.42;;;33.13;;
73776;SDS011;62088;50.240;2.696;2023-05-15T01:16:11;45.10;;;34.70;;
73776;SDS011;62088;50.240;2.696;2023-05-15T01:18:38;42.10;;;32.30;;
73776;SDS011;62088;50.240;2.696;2023-05-15T01:21:15;42.10;;;32.58;;
73776;SDS011;62088;50.240;2.696;2023-05-15T01:31:54;45.90;;;35.70;;
73776;SDS011;62088;50.240;2.696;2023-05-15T01:34:28;45.78;;;35.83;;
73776;SDS011;62088;50.240;2.696;2023-05-15T01:37:03;47.35;;;35.03;;
73776;SDS011;62088;50.240;2.696;2023-05-15T01:39:33;52.35;;;37.58;;
73776;SDS011;62088;50.240;2.696;2023-05-15T01:42:02;42.17;;;34.10;;
73776;SDS011;62088;50.240;2.696;2023-05-15T01:44:39;47.95;;;35.80;;
73776;SDS011;62088;50.240;2.696;2023-05-15T01:47:12;47.90;;;36.53;;
73776;SDS011;62088;50.240;2.696;2023-05-15T01:49:42;49.45;;;36.65;;
73776;SDS011;62088;50.240;2.696;2023-05-15T01:52:15;48.38;;;35.10;;
73776;SDS011;62088;50.240;2.696;2023-05-15T01:54:45;49.67;;;37.33;;
73776;SDS011;62088;50.240;2.696;2023-05-15T01:57:14;46.78;;;36.60;;
73776;SDS011;62088;50.240;2.696;2023-05-15T01:59:43;46.55;;;34.95;;
73776;SDS011;62088;50.240;2.696;2023-05-15T02:02:11;45.88;;;34.08;;
73776;SDS011;62088;50.240;2.696;2023-05-15T02:04:39;49.90;;;36.35;;
73776;SDS011;62088;50.240;2.696;2023-05-15T02:07:08;52.30;;;38.30;;
73776;SDS011;62088;50.240;2.696;2023-05-15T02:09:36;51.65;;;38.35;;
73776;SDS011;62088;50.240;2.696;2023-05-15T02:12:04;50.35;;;37.88;;
73776;SDS011;62088;50.240;2.696;2023-05-15T02:14:33;49.60;;;37.67;;
73776;SDS011;62088;50.240;2.696;2023-05-15T02:17:00;49.35;;;38.00;;
73776;SDS011;62088;50.240;2.696;2023-05-15T02:19:28;44.67;;;34.78;;
73776;SDS011;62088;50.240;2.696;2023-05-15T02:21:55;45.95;;;35.95;;
73776;SDS011;62088;50.240;2.696;2023-05-15T02:24:22;44.50;;;33.88;;
73776;SDS011;62088;50.240;2.696;2023-05-15T02:32:03;48.83;;;37.53;;
73776;SDS011;62088;50.240;2.696;2023-05-15T02:37:38;48.97;;;37.17;;
73776;SDS011;62088;50.240;2.696;2023-05-15T02:40:08;44.40;;;33.88;;
73776;SDS011;62088;50.240;2.696;2023-05-15T02:42:37;51.97;;;38.38;;
73776;SDS011;62088;50.240;2.696;2023-05-15T02:45:06;42.53;;;33.50;;
73776;SDS011;62088;50.240;2.696;2023-05-15T02:47:36;46.38;;;34.22;;
73776;SDS011;62088;50.240;2.696;2023-05-15T02:50:04;45.35;;;34.95;;
73776;SDS011;62088;50.240;2.696;2023-05-15T02:52:32;46.15;;;34.25;;
73776;SDS011;62088;50.240;2.696;2023-05-15T02:55:00;44.53;;;35.13;;
73776;SDS011;62088;50.240;2.696;2023-05-15T02:57:27;43.33;;;34.00;;
73776;SDS011;62088;50.240;2.696;2023-05-15T02:59:55;44.35;;;34.17;;
73776;SDS011;62088;50.240;2.696;2023-05-15T03:02:22;42.33;;;32.85;;
73776;SDS011;62088;50.240;2.696;2023-05-15T03:04:50;44.00;;;34.28;;
73776;SDS011;62088;50.240;2.696;2023-05-15T03:07:17;43.63;;;32.83;;
73776;SDS011;62088;50.240;2.696;2023-05-15T03:09:44;44.08;;;32.47;;
73776;SDS011;62088;50.240;2.696;2023-05-15T03:12:11;43.63;;;33.30;;
73776;SDS011;62088;50.240;2.696;2023-05-15T03:14:38;45.63;;;32.95;;
73776;SDS011;62088;50.240;2.696;2023-05-15T03:17:05;45.83;;;33.47;;
73776;SDS011;62088;50.240;2.696;2023-05-15T03:19:32;41.15;;;30.17;;
73776;SDS011;62088;50.240;2.696;2023-05-15T03:21:59;42.65;;;30.85;;
73776;SDS011;62088;50.240;2.696;2023-05-15T03:24:26;40.50;;;30.15;;
73776;SDS011;62088;50.240;2.696;2023-05-15T03:26:53;42.13;;;30.58;;
73776;SDS011;62088;50.240;2.696;2023-05-15T03:29:20;44.25;;;32.60;;
73776;SDS011;62088;50.240;2.696;2023-05-15T03:31:47;38.30;;;28.42;;
73776;SDS011;62088;50.240;2.696;2023-05-15T03:34:14;42.67;;;30.67;;
73776;SDS011;62088;50.240;2.696;2023-05-15T03:36:41;43.60;;;30.50;;
73776;SDS011;62088;50.240;2.696;2023-05-15T03:39:09;49.88;;;32.92;;
73776;SDS011;62088;50.240;2.696;2023-05-15T03:41:36;47.90;;;32.67;;
73776;SDS011;62088;50.240;2.696;2023-05-15T03:44:03;45.15;;;29.92;;
73776;SDS011;62088;50.240;2.696;2023-05-15T03:46:30;45.03;;;31.17;;
73776;SDS011;62088;50.240;2.696;2023-05-15T03:48:57;46.88;;;30.38;;
73776;SDS011;62088;50.240;2.696;2023-05-15T03:51:24;48.63;;;32.90;;
73776;SDS011;62088;50.240;2.696;2023-05-15T03:53:52;47.08;;;31.70;;
73776;SDS011;62088;50.240;2.696;2023-05-15T03:56:21;50.33;;;32.38;;
73776;SDS011;62088;50.240;2.696;2023-05-15T03:58:48;46.50;;;29.33;;
73776;SDS011;62088;50.240;2.696;2023-05-15T04:01:15;47.90;;;30.65;;
73776;SDS011;62088;50.240;2.696;2023-05-15T04:03:42;48.97;;;31.10;;
73776;SDS011;62088;50.240;2.696;2023-05-15T04:06:09;47.05;;;30.02;;
73776;SDS011;62088;50.240;2.696;2023-05-15T04:08:36;50.65;;;32.22;;
73776;SDS011;62088;50.240;2.696;2023-05-15T04:11:05;45.88;;;28.17;;
73776;SDS011;62088;50.240;2.696;2023-05-15T04:13:32;49.90;;;32.08;;
73776;SDS011;62088;50.240;2.696;2023-05-15T04:15:59;54.78;;;32.97;;
73776;SDS011;62088;50.240;2.696;2023-05-15T04:18:26;49.28;;;31.60;;
73776;SDS011;62088;50.240;2.696;2023-05-15T04:20:53;48.10;;;30.25;;
73776;SDS011;62088;50.240;2.696;2023-05-15T04:23:20;52.65;;;33.53;;
73776;SDS011;62088;50.240;2.696;2023-05-15T04:25:47;50.88;;;32.25;;
73776;SDS011;62088;50.240;2.696;2023-05-15T04:28:14;48.72;;;30.88;;
73776;SDS011;62088;50.240;2.696;2023-05-15T04:30:42;54.20;;;32.83;;
73776;SDS011;62088;50.240;2.696;2023-05-15T04:33:09;50.75;;;30.35;;
73776;SDS011;62088;50.240;2.696;2023-05-15T04:35:36;50.63;;;31.70;;
73776;SDS011;62088;50.240;2.696;2023-05-15T04:38:03;44.13;;;27.17;;
73776;SDS011;62088;50.240;2.696;2023-05-15T04:40:31;44.40;;;27.48;;
73776;SDS011;62088;50.240;2.696;2023-05-15T04:42:57;40.47;;;25.30;;
73776;SDS011;62088;50.240;2.696;2023-05-15T04:45:24;40.03;;;23.38;;
73776;SDS011;62088;50.240;2.696;2023-05-15T04:47:52;32.42;;;21.08;;
73776;SDS011;62088;50.240;2.696;2023-05-15T04:50:19;33.72;;;22.05;;
73776;SDS011;62088;50.240;2.696;2023-05-15T04:52:46;32.03;;;19.45;;
73776;SDS011;62088;50.240;2.696;2023-05-15T04:55:13;31.83;;;19.80;;
73776;SDS011;62088;50.240;2.696;2023-05-15T04:57:40;33.22;;;18.65;;
73776;SDS011;62088;50.240;2.696;2023-05-15T05:00:08;28.63;;;18.05;;
73776;SDS011;62088;50.240;2.696;2023-05-15T05:02:37;27.00;;;15.98;;
73776;SDS011;62088;50.240;2.696;2023-05-15T05:05:05;31.83;;;18.20;;
73776;SDS011;62088;50.240;2.696;2023-05-15T05:07:34;30.10;;;18.45;;
73776;SDS011;62088;50.240;2.696;2023-05-15T05:10:01;30.45;;;17.73;;
73776;SDS011;62088;50.240;2.696;2023-05-15T05:12:30;31.73;;;17.25;;
73776;SDS011;62088;50.240;2.696;2023-05-15T05:14:57;28.42;;;16.98;;
73776;SDS011;62088;50.240;2.696;2023-05-15T05:17:24;29.10;;;16.52;;
73776;SDS011;62088;50.240;2.696;2023-05-15T05:19:51;29.92;;;15.77;;
73776;SDS011;62088;50.240;2.696;2023-05-15T05:22:19;34.42;;;18.13;;
73776;SDS011;62088;50.240;2.696;2023-05-15T05:24:45;31.70;;;17.23;;
73776;SDS011;62088;50.240;2.696;2023-05-15T05:27:12;33.08;;;18.48;;
73776;SDS011;62088;50.240;2.696;2023-05-15T05:29:39;36.10;;;20.08;;
73776;SDS011;62088;50.240;2.696;2023-05-15T05:32:06;44.63;;;23.77;;
73776;SDS011;62088;50.240;2.696;2023-05-15T05:34:34;44.92;;;24.60;;
73776;SDS011;62088;50.240;2.696;2023-05-15T05:37:01;47.22;;;24.05;;
73776;SDS011;62088;50.240;2.696;2023-05-15T05:39:28;48.10;;;25.65;;
73776;SDS011;62088;50.240;2.696;2023-05-15T05:41:55;41.58;;;22.95;;
73776;SDS011;62088;50.240;2.696;2023-05-15T05:44:22;39.60;;;21.83;;
73776;SDS011;62088;50.240;2.696;2023-05-15T05:46:50;42.25;;;22.42;;
73776;SDS011;62088;50.240;2.696;2023-05-15T05:49:17;38.67;;;22.52;;
73776;SDS011;62088;50.240;2.696;2023-05-15T05:51:44;36.22;;;21.42;;
73776;SDS011;62088;50.240;2.696;2023-05-15T05:54:12;38.22;;;22.27;;
73776;SDS011;62088;50.240;2.696;2023-05-15T05:56:43;34.60;;;21.23;;
73776;SDS011;62088;50.240;2.696;2023-05-15T05:59:11;36.30;;;20.92;;
73776;SDS011;62088;50.240;2.696;2023-05-15T06:01:38;37.83;;;23.15;;
73776;SDS011;62088;50.240;2.696;2023-05-15T06:04:05;36.17;;;21.63;;
73776;SDS011;62088;50.240;2.696;2023-05-15T06:06:32;38.88;;;22.88;;
73776;SDS011;62088;50.240;2.696;2023-05-15T06:08:59;35.45;;;22.85;;
73776;SDS011;62088;50.240;2.696;2023-05-15T06:11:27;40.20;;;23.98;;
73776;SDS011;62088;50.240;2.696;2023-05-15T06:13:54;37.13;;;23.33;;
73776;SDS011;62088;50.240;2.696;2023-05-15T06:16:22;38.20;;;23.50;;
73776;SDS011;62088;50.240;2.696;2023-05-15T06:18:49;41.10;;;23.50;;
73776;SDS011;62088;50.240;2.696;2023-05-15T06:21:16;34.75;;;23.15;;
73776;SDS011;62088;50.240;2.696;2023-05-15T06:23:43;36.38;;;23.10;;
73776;SDS011;62088;50.240;2.696;2023-05-15T06:26:10;37.40;;;22.77;;
73776;SDS011;62088;50.240;2.696;2023-05-15T06:28:37;38.25;;;23.55;;
73776;SDS011;62088;50.240;2.696;2023-05-15T06:31:04;40.13;;;25.10;;
73776;SDS011;62088;50.240;2.696;2023-05-15T06:33:31;40.00;;;24.38;;
73776;SDS011;62088;50.240;2.696;2023-05-15T06:35:59;39.47;;;24.42;;
73776;SDS011;62088;50.240;2.696;2023-05-15T06:38:26;35.67;;;23.52;;
73776;SDS011;62088;50.240;2.696;2023-05-15T06:40:53;33.92;;;21.88;;
73776;SDS011;62088;50.240;2.696;2023-05-15T06:43:20;35.58;;;22.85;;
73776;SDS011;62088;50.240;2.696;2023-05-15T06:45:48;32.00;;;22.38;;
73776;SDS011;62088;50.240;2.696;2023-05-15T06:48:15;39.58;;;23.33;;
73776;SDS011;62088;50.240;2.696;2023-05-15T06:50:42;36.22;;;23.48;;
73776;SDS011;62088;50.240;2.696;2023-05-15T06:53:09;32.30;;;21.52;;
73776;SDS011;62088;50.240;2.696;2023-05-15T06:55:39;30.92;;;19.80;;
73776;SDS011;62088;50.240;2.696;2023-05-15T06:58:06;31.70;;;20.38;;
73776;SDS011;62088;50.240;2.696;2023-05-15T07:00:33;30.15;;;19.45;;
73776;SDS011;62088;50.240;2.696;2023-05-15T07:03:01;28.92;;;19.02;;
73776;SDS011;62088;50.240;2.696;2023-05-15T07:05:28;27.05;;;16.95;;
73776;SDS011;62088;50.240;2.696;2023-05-15T07:07:56;23.40;;;16.13;;
73776;SDS011;62088;50.240;2.696;2023-05-15T07:10:23;21.08;;;14.18;;
73776;SDS011;62088;50.240;2.696;2023-05-15T07:12:50;21.20;;;13.70;;
73776;SDS011;62088;50.240;2.696;2023-05-15T07:15:17;23.25;;;14.07;;
73776;SDS011;62088;50.240;2.696;2023-05-15T07:17:44;29.45;;;18.92;;
73776;SDS011;62088;50.240;2.696;2023-05-15T07:20:11;30.20;;;19.70;;
73776;SDS011;62088;50.240;2.696;2023-05-15T07:22:38;31.33;;;20.15;;
73776;SDS011;62088;50.240;2.696;2023-05-15T07:25:21;32.20;;;20.38;;
73776;SDS011;62088;50.240;2.696;2023-05-15T07:27:49;36.83;;;21.27;;
73776;SDS011;62088;50.240;2.696;2023-05-15T07:30:16;34.90;;;21.75;;
73776;SDS011;62088;50.240;2.696;2023-05-15T07:32:44;38.45;;;22.85;;
73776;SDS011;62088;50.240;2.696;2023-05-15T07:35:11;35.78;;;20.95;;
73776;SDS011;62088;50.240;2.696;2023-05-15T07:37:39;39.03;;;21.92;;
73776;SDS011;62088;50.240;2.696;2023-05-15T07:40:06;38.83;;;20.55;;
73776;SDS011;62088;50.240;2.696;2023-05-15T07:42:33;38.10;;;21.88;;
73776;SDS011;62088;50.240;2.696;2023-05-15T07:45:00;38.58;;;22.38;;
73776;SDS011;62088;50.240;2.696;2023-05-15T07:47:28;40.60;;;21.15;;
73776;SDS011;62088;50.240;2.696;2023-05-15T07:49:56;37.35;;;21.40;;
73776;SDS011;62088;50.240;2.696;2023-05-15T07:52:23;38.92;;;22.02;;
73776;SDS011;62088;50.240;2.696;2023-05-15T07:54:50;43.63;;;23.38;;
73776;SDS011;62088;50.240;2.696;2023-05-15T07:57:16;39.08;;;22.17;;
73776;SDS011;62088;50.240;2.696;2023-05-15T07:59:43;38.53;;;22.30;;
73776;SDS011;62088;50.240;2.696;2023-05-15T08:02:11;39.50;;;22.05;;
73776;SDS011;62088;50.240;2.696;2023-05-15T08:04:37;49.95;;;24.92;;
73776;SDS011;62088;50.240;2.696;2023-05-15T08:07:05;49.22;;;23.48;;
73776;SDS011;62088;50.240;2.696;2023-05-15T08:09:32;44.80;;;23.83;;
73776;SDS011;62088;50.240;2.696;2023-05-15T08:14:43;48.28;;;24.48;;
73776;SDS011;62088;50.240;2.696;2023-05-15T08:17:10;57.03;;;25.08;;
73776;SDS011;62088;50.240;2.696;2023-05-15T08:19:37;54.65;;;23.90;;
73776;SDS011;62088;50.240;2.696;2023-05-15T08:22:04;47.60;;;24.13;;
73776;SDS011;62088;50.240;2.696;2023-05-15T08:24:31;47.42;;;23.33;;
73776;SDS011;62088;50.240;2.696;2023-05-15T08:26:58;45.75;;;23.95;;
73776;SDS011;62088;50.240;2.696;2023-05-15T08:29:26;51.40;;;25.38;;
73776;SDS011;62088;50.240;2.696;2023-05-15T08:31:53;52.40;;;24.73;;
73776;SDS011;62088;50.240;2.696;2023-05-15T08:34:20;49.58;;;24.35;;
73776;SDS011;62088;50.240;2.696;2023-05-15T08:36:47;57.83;;;26.08;;
73776;SDS011;62088;50.240;2.696;2023-05-15T08:39:14;54.08;;;25.45;;
73776;SDS011;62088;50.240;2.696;2023-05-15T08:41:50;47.65;;;23.80;;
73776;SDS011;62088;50.240;2.696;2023-05-15T08:44:23;48.15;;;22.63;;
73776;SDS011;62088;50.240;2.696;2023-05-15T08:46:51;50.03;;;24.25;;
73776;SDS011;62088;50.240;2.696;2023-05-15T08:49:23;51.47;;;25.02;;
73776;SDS011;62088;50.240;2.696;2023-05-15T08:52:13;44.90;;;21.92;;
73776;SDS011;62088;50.240;2.696;2023-05-15T08:54:41;45.90;;;23.63;;
73776;SDS011;62088;50.240;2.696;2023-05-15T08:57:11;43.10;;;22.48;;
73776;SDS011;62088;50.240;2.696;2023-05-15T08:59:38;47.53;;;23.38;;
73776;SDS011;62088;50.240;2.696;2023-05-15T09:02:06;46.17;;;21.17;;
73776;SDS011;62088;50.240;2.696;2023-05-15T09:04:33;40.92;;;21.67;;
73776;SDS011;62088;50.240;2.696;2023-05-15T09:07:00;39.80;;;22.27;;
73776;SDS011;62088;50.240;2.696;2023-05-15T09:09:29;44.45;;;23.50;;
73776;SDS011;62088;50.240;2.696;2023-05-15T09:11:58;46.00;;;23.70;;
73776;SDS011;62088;50.240;2.696;2023-05-15T09:14:27;47.67;;;22.98;;
73776;SDS011;62088;50.240;2.696;2023-05-15T09:16:55;44.08;;;21.17;;
73776;SDS011;62088;50.240;2.696;2023-05-15T09:19:22;36.30;;;20.65;;
73776;SDS011;62088;50.240;2.696;2023-05-15T09:21:49;35.42;;;20.17;;
73776;SDS011;62088;50.240;2.696;2023-05-15T09:26:44;37.30;;;21.92;;
73776;SDS011;62088;50.240;2.696;2023-05-15T09:29:15;46.72;;;24.38;;
73776;SDS011;62088;50.240;2.696;2023-05-15T09:31:47;40.47;;;23.52;;
73776;SDS011;62088;50.240;2.696;2023-05-15T09:34:15;33.53;;;20.52;;
73776;SDS011;62088;50.240;2.696;2023-05-15T09:36:42;33.58;;;19.67;;
73776;SDS011;62088;50.240;2.696;2023-05-15T09:39:10;30.42;;;19.85;;
73776;SDS011;62088;50.240;2.696;2023-05-15T09:41:41;28.13;;;19.95;;
73776;SDS011;62088;50.240;2.696;2023-05-15T09:44:23;27.80;;;19.63;;
73776;SDS011;62088;50.240;2.696;2023-05-15T09:46:51;26.10;;;18.25;;
73776;SDS011;62088;50.240;2.696;2023-05-15T09:49:18;21.55;;;18.45;;
73776;SDS011;62088;50.240;2.696;2023-05-15T09:51:46;23.25;;;16.98;;
73776;SDS011;62088;50.240;2.696;2023-05-15T09:54:15;24.45;;;17.27;;
73776;SDS011;62088;50.240;2.696;2023-05-15T09:56:44;25.35;;;16.38;;
73776;SDS011;62088;50.240;2.696;2023-05-15T09:59:13;19.33;;;13.90;;
73776;SDS011;62088;50.240;2.696;2023-05-15T10:01:45;21.35;;;13.35;;
73776;SDS011;62088;50.240;2.696;2023-05-15T10:04:13;19.10;;;13.00;;
73776;SDS011;62088;50.240;2.696;2023-05-15T10:06:42;16.08;;;10.95;;
73776;SDS011;62088;50.240;2.696;2023-05-15T10:09:11;17.15;;;11.52;;
73776;SDS011;62088;50.240;2.696;2023-05-15T10:11:43;14.30;;;9.55;;
73776;SDS011;62088;50.240;2.696;2023-05-15T10:14:18;13.02;;;8.65;;
73776;SDS011;62088;50.240;2.696;2023-05-15T10:16:47;15.35;;;8.98;;
73776;SDS011;62088;50.240;2.696;2023-05-15T10:19:15;11.38;;;7.38;;
73776;SDS011;62088;50.240;2.696;2023-05-15T10:21:45;14.95;;;8.88;;
73776;SDS011;62088;50.240;2.696;2023-05-15T10:24:13;14.45;;;7.13;;
73776;SDS011;62088;50.240;2.696;2023-05-15T10:26:44;11.05;;;7.05;;
73776;SDS011;62088;50.240;2.696;2023-05-15T10:29:15;14.00;;;7.18;;
73776;SDS011;62088;50.240;2.696;2023-05-15T10:31:44;13.70;;;7.68;;
73776;SDS011;62088;50.240;2.696;2023-05-15T10:34:14;13.60;;;7.60;;
73776;SDS011;62088;50.240;2.696;2023-05-15T10:36:41;13.35;;;7.28;;
73776;SDS011;62088;50.240;2.696;2023-05-15T10:39:09;13.77;;;6.68;;
73776;SDS011;62088;50.240;2.696;2023-05-15T10:41:38;11.68;;;6.45;;
73776;SDS011;62088;50.240;2.696;2023-05-15T10:44:05;8.35;;;5.07;;
73776;SDS011;62088;50.240;2.696;2023-05-15T10:46:33;12.10;;;5.10;;
73776;SDS011;62088;50.240;2.696;2023-05-15T10:49:02;11.05;;;4.80;;
73776;SDS011;62088;50.240;2.696;2023-05-15T10:51:30;10.30;;;4.47;;
73776;SDS011;62088;50.240;2.696;2023-05-15T10:53:58;10.18;;;4.45;;
73776;SDS011;62088;50.240;2.696;2023-05-15T10:56:29;10.25;;;4.30;;
73776;SDS011;62088;50.240;2.696;2023-05-15T10:59:03;10.00;;;4.32;;
73776;SDS011;62088;50.240;2.696;2023-05-15T11:01:35;9.95;;;3.95;;
73776;SDS011;62088;50.240;2.696;2023-05-15T11:06:42;8.32;;;2.83;;
73776;SDS011;62088;50.240;2.696;2023-05-15T11:09:32;9.35;;;3.95;;
73776;SDS011;62088;50.240;2.696;2023-05-15T11:12:01;11.30;;;3.97;;
73776;SDS011;62088;50.240;2.696;2023-05-15T11:14:36;9.23;;;3.75;;
73776;SDS011;62088;50.240;2.696;2023-05-15T11:17:05;8.32;;;3.20;;
73776;SDS011;62088;50.240;2.696;2023-05-15T11:22:14;9.57;;;3.58;;
73776;SDS011;62088;50.240;2.696;2023-05-15T11:27:23;10.32;;;3.85;;
73776;SDS011;62088;50.240;2.696;2023-05-15T11:35:27;10.20;;;3.80;;
73776;SDS011;62088;50.240;2.696;2023-05-15T11:40:42;10.87;;;3.13;;
73776;SDS011;62088;50.240;2.696;2023-05-15T11:43:25;13.05;;;3.78;;
73776;SDS011;62088;50.240;2.696;2023-05-15T11:45:54;10.48;;;3.45;;
73776;SDS011;62088;50.240;2.696;2023-05-15T11:48:32;11.38;;;3.22;;
73776;SDS011;62088;50.240;2.696;2023-05-15T11:51:05;10.25;;;3.08;;
73776;SDS011;62088;50.240;2.696;2023-05-15T11:53:45;8.13;;;2.83;;
73776;SDS011;62088;50.240;2.696;2023-05-15T11:56:21;10.77;;;3.28;;
73776;SDS011;62088;50.240;2.696;2023-05-15T11:58:56;10.70;;;2.90;;
73776;SDS011;62088;50.240;2.696;2023-05-15T12:01:25;7.53;;;2.90;;
73776;SDS011;62088;50.240;2.696;2023-05-15T12:03:54;11.60;;;5.93;;
73776;SDS011;62088;50.240;2.696;2023-05-15T12:06:22;9.38;;;3.35;;
73776;SDS011;62088;50.240;2.696;2023-05-15T12:08:50;10.00;;;2.97;;
73776;SDS011;62088;50.240;2.696;2023-05-15T12:11:21;7.95;;;3.20;;
73776;SDS011;62088;50.240;2.696;2023-05-15T12:13:50;8.70;;;3.05;;
73776;SDS011;62088;50.240;2.696;2023-05-15T12:16:25;9.27;;;2.90;;
73776;SDS011;62088;50.240;2.696;2023-05-15T12:21:22;5.93;;;2.72;;
73776;SDS011;62088;50.240;2.696;2023-05-15T12:23:51;7.43;;;3.33;;
73776;SDS011;62088;50.240;2.696;2023-05-15T12:26:32;8.18;;;2.88;;
73776;SDS011;62088;50.240;2.696;2023-05-15T12:28:59;7.00;;;2.92;;
73776;SDS011;62088;50.240;2.696;2023-05-15T12:31:26;7.07;;;2.80;;
73776;SDS011;62088;50.240;2.696;2023-05-15T12:33:54;7.30;;;2.55;;
73776;SDS011;62088;50.240;2.696;2023-05-15T12:36:21;8.73;;;2.85;;
73776;SDS011;62088;50.240;2.696;2023-05-15T12:38:48;6.82;;;2.75;;
73776;SDS011;62088;50.240;2.696;2023-05-15T12:41:16;6.50;;;2.50;;
73776;SDS011;62088;50.240;2.696;2023-05-15T12:43:45;7.05;;;2.38;;
73776;SDS011;62088;50.240;2.696;2023-05-15T12:46:12;5.60;;;2.40;;
73776;SDS011;62088;50.240;2.696;2023-05-15T12:48:40;7.57;;;2.60;;
73776;SDS011;62088;50.240;2.696;2023-05-15T12:51:07;6.22;;;2.70;;
73776;SDS011;62088;50.240;2.696;2023-05-15T12:53:35;11.45;;;3.25;;
73776;SDS011;62088;50.240;2.696;2023-05-15T12:56:05;6.32;;;2.72;;
73776;SDS011;62088;50.240;2.696;2023-05-15T12:58:34;7.03;;;2.92;;
73776;SDS011;62088;50.240;2.696;2023-05-15T13:01:01;7.88;;;2.80;;
73776;SDS011;62088;50.240;2.696;2023-05-15T13:03:29;9.93;;;2.92;;
73776;SDS011;62088;50.240;2.696;2023-05-15T13:05:57;10.63;;;3.00;;
73776;SDS011;62088;50.240;2.696;2023-05-15T13:08:24;10.02;;;3.20;;
73776;SDS011;62088;50.240;2.696;2023-05-15T13:10:58;7.70;;;3.08;;
73776;SDS011;62088;50.240;2.696;2023-05-15T13:13:41;8.45;;;2.80;;
73776;SDS011;62088;50.240;2.696;2023-05-15T13:16:19;7.43;;;2.67;;
73776;SDS011;62088;50.240;2.696;2023-05-15T13:18:55;7.85;;;2.90;;
73776;SDS011;62088;50.240;2.696;2023-05-15T13:21:25;9.25;;;3.17;;
73776;SDS011;62088;50.240;2.696;2023-05-15T13:23:52;11.55;;;2.85;;
73776;SDS011;62088;50.240;2.696;2023-05-15T13:26:19;8.55;;;2.60;;
73776;SDS011;62088;50.240;2.696;2023-05-15T13:28:47;6.85;;;3.20;;
73776;SDS011;62088;50.240;2.696;2023-05-15T13:31:14;11.88;;;3.45;;
73776;SDS011;62088;50.240;2.696;2023-05-15T13:33:42;9.32;;;2.85;;
73776;SDS011;62088;50.240;2.696;2023-05-15T13:36:10;7.57;;;2.60;;
73776;SDS011;62088;50.240;2.696;2023-05-15T13:38:37;8.80;;;3.00;;
73776;SDS011;62088;50.240;2.696;2023-05-15T13:41:04;6.10;;;2.65;;
73776;SDS011;62088;50.240;2.696;2023-05-15T13:43:31;6.72;;;2.50;;
73776;SDS011;62088;50.240;2.696;2023-05-15T13:45:58;8.00;;;2.88;;
73776;SDS011;62088;50.240;2.696;2023-05-15T13:48:25;5.93;;;2.15;;
73776;SDS011;62088;50.240;2.696;2023-05-15T13:50:52;5.10;;;2.70;;
73776;SDS011;62088;50.240;2.696;2023-05-15T13:53:19;5.47;;;2.10;;
73776;SDS011;62088;50.240;2.696;2023-05-15T13:55:46;5.97;;;2.40;;
73776;SDS011;62088;50.240;2.696;2023-05-15T13:58:13;6.10;;;2.33;;
73776;SDS011;62088;50.240;2.696;2023-05-15T14:00:41;6.82;;;2.67;;
73776;SDS011;62088;50.240;2.696;2023-05-15T14:03:09;7.18;;;2.67;;
73776;SDS011;62088;50.240;2.696;2023-05-15T14:05:40;6.95;;;2.47;;
73776;SDS011;62088;50.240;2.696;2023-05-15T14:08:07;7.57;;;3.03;;
73776;SDS011;62088;50.240;2.696;2023-05-15T14:10:35;8.63;;;3.20;;
73776;SDS011;62088;50.240;2.696;2023-05-15T14:13:02;7.63;;;2.78;;
73776;SDS011;62088;50.240;2.696;2023-05-15T14:15:29;8.38;;;3.17;;
73776;SDS011;62088;50.240;2.696;2023-05-15T14:17:56;8.57;;;2.92;;
73776;SDS011;62088;50.240;2.696;2023-05-15T14:20:24;8.63;;;3.20;;
73776;SDS011;62088;50.240;2.696;2023-05-15T14:22:51;7.88;;;3.38;;
73776;SDS011;62088;50.240;2.696;2023-05-15T14:25:18;7.35;;;3.13;;
73776;SDS011;62088;50.240;2.696;2023-05-15T14:27:45;7.60;;;2.70;;
73776;SDS011;62088;50.240;2.696;2023-05-15T14:30:13;10.98;;;3.63;;
73776;SDS011;62088;50.240;2.696;2023-05-15T14:32:40;8.60;;;3.70;;
73776;SDS011;62088;50.240;2.696;2023-05-15T14:35:07;10.05;;;3.88;;
73776;SDS011;62088;50.240;2.696;2023-05-15T14:37:35;7.55;;;3.78;;
73776;SDS011;62088;50.240;2.696;2023-05-15T14:40:03;10.10;;;3.85;;
73776;SDS011;62088;50.240;2.696;2023-05-15T14:42:30;7.32;;;3.53;;
73776;SDS011;62088;50.240;2.696;2023-05-15T14:44:57;8.02;;;3.67;;
73776;SDS011;62088;50.240;2.696;2023-05-15T14:47:24;9.63;;;4.03;;
73776;SDS011;62088;50.240;2.696;2023-05-15T14:49:53;6.85;;;3.13;;
73776;SDS011;62088;50.240;2.696;2023-05-15T14:52:21;8.63;;;3.67;;
73776;SDS011;62088;50.240;2.696;2023-05-15T14:54:48;7.35;;;3.15;;
73776;SDS011;62088;50.240;2.696;2023-05-15T14:57:33;10.32;;;3.00;;
73776;SDS011;62088;50.240;2.696;2023-05-15T15:00:00;8.50;;;3.38;;
73776;SDS011;62088;50.240;2.696;2023-05-15T15:02:27;11.95;;;3.45;;
73776;SDS011;62088;50.240;2.696;2023-05-15T15:04:54;7.88;;;2.72;;
73776;SDS011;62088;50.240;2.696;2023-05-15T15:07:26;7.68;;;2.95;;
73776;SDS011;62088;50.240;2.696;2023-05-15T15:09:55;11.15;;;3.47;;
73776;SDS011;62088;50.240;2.696;2023-05-15T15:12:22;14.35;;;3.40;;
73776;SDS011;62088;50.240;2.696;2023-05-15T15:14:49;10.52;;;3.20;;
73776;SDS011;62088;50.240;2.696;2023-05-15T15:17:16;9.02;;;2.95;;